Time;durP1;ratioP1;P1;durP2;ratioP2;P2;SDS_P1;SDS_P2;PMS_P1;PMS_P2;Temp;Humidity;BMP_temperature;BMP_pressure;BME280_temperature;BME280_humidity;BME280_pressure;Samples;Min_cycle;Max_cycle;Signal;HPM_P1;HPM_P2
2023/07/30 00:00:50;;;;;;;0.50;0.30;;;;;;;23.08;63.52;95166.28;5112092;28;20447;-73
2023/07/30 00:03:18;;;;;;;0.70;0.60;;;;;;;23.24;63.15;95164.34;5098132;28;20929;-74
2023/07/30 00:05:53;;;;;;;0.50;0.40;;;;;;;23.34;63.11;95166.50;5112379;28;20443;-74
2023/07/30 00:08:24;;;;;;;0.50;0.30;;;;;;;23.51;62.66;95162.63;5112177;28;20454;-74
2023/07/30 00:10:52;;;;;;;0.50;0.40;;;;;;;23.53;62.60;95169.25;5111229;28;20490;-74
2023/07/30 00:13:21;;;;;;;0.40;0.20;;;;;;;23.46;62.27;95171.81;5111977;28;20439;-75
2023/07/30 00:15:49;;;;;;;0.40;0.30;;;;;;;23.53;62.58;95177.38;5111630;28;20428;-74
2023/07/30 00:18:18;;;;;;;0.97;0.40;;;;;;;23.56;62.16;95181.28;5111904;28;20428;-75
2023/07/30 00:20:46;;;;;;;0.50;0.30;;;;;;;23.55;61.94;95177.03;5111241;28;20439;-75
2023/07/30 00:23:15;;;;;;;0.50;0.40;;;;;;;23.50;62.60;95185.44;5111316;28;20527;-75
2023/07/30 00:25:45;;;;;;;0.50;0.40;;;;;;;22.91;63.98;95185.59;5111888;28;20852;-74
2023/07/30 00:28:13;;;;;;;0.73;0.63;;;;;;;22.88;65.02;95188.97;5113866;28;20447;-74
2023/07/30 00:30:41;;;;;;;0.70;0.40;;;;;;;22.86;65.59;95188.56;5115522;28;20548;-75
2023/07/30 00:33:10;;;;;;;0.50;0.30;;;;;;;23.06;64.72;95185.56;5115812;28;21094;-75
2023/07/30 00:35:38;;;;;;;0.40;0.30;;;;;;;23.10;65.00;95185.63;5115971;28;20454;-74
2023/07/30 00:38:06;;;;;;;0.40;0.30;;;;;;;23.25;64.32;95184.84;5115756;28;20448;-73
2023/07/30 00:40:40;;;;;;;0.40;0.20;;;;;;;23.21;64.55;95182.06;5115282;28;20994;-74
2023/07/30 00:43:10;;;;;;;0.50;0.30;;;;;;;23.10;65.14;95180.22;5115882;28;20963;-74
2023/07/30 00:45:42;;;;;;;0.40;0.30;;;;;;;23.01;65.33;95183.16;5115107;28;20838;-75
2023/07/30 00:48:11;;;;;;;0.50;0.30;;;;;;;23.09;65.35;95181.38;5115511;28;20524;-74
2023/07/30 00:50:40;;;;;;;0.40;0.30;;;;;;;23.02;65.21;95178.53;5115560;28;21011;-74
2023/07/30 00:53:10;;;;;;;0.50;0.40;;;;;;;22.86;65.48;95170.44;5115244;28;20941;-74
2023/07/30 00:55:38;;;;;;;0.40;0.30;;;;;;;22.40;65.26;95117.16;5115417;28;20871;-74
2023/07/30 00:58:07;;;;;;;0.40;0.20;;;;;;;22.84;65.96;95172.72;5115325;28;20889;-73
2023/07/30 01:00:37;;;;;;;0.50;0.30;;;;;;;22.68;66.08;95174.63;5105378;28;21008;-73
2023/07/30 01:03:07;;;;;;;0.50;0.30;;;;;;;22.60;66.46;95175.53;5112018;28;20436;-73
2023/07/30 01:05:36;;;;;;;0.50;0.30;;;;;;;22.60;67.46;95173.63;5115248;28;20473;-73
2023/07/30 01:08:04;;;;;;;0.40;0.30;;;;;;;22.65;67.02;95164.50;5117223;28;20522;-72
2023/07/30 01:10:36;;;;;;;0.40;0.30;;;;;;;22.76;66.67;95165.56;5115494;28;20599;-72
2023/07/30 01:13:05;;;;;;;0.40;0.30;;;;;;;22.54;66.81;95144.53;5114791;28;20440;-72
2023/07/30 01:15:34;;;;;;;0.60;0.37;;;;;;;22.21;67.23;95168.38;5114096;28;20443;-71
2023/07/30 01:18:03;;;;;;;0.50;0.50;;;;;;;22.16;69.14;95169.41;5114976;28;20478;-72
2023/07/30 01:20:32;;;;;;;0.40;0.30;;;;;;;22.37;68.77;95163.75;5114525;28;20446;-71
2023/07/30 01:23:02;;;;;;;0.60;0.50;;;;;;;22.49;68.01;95167.16;5114557;28;20518;-73
2023/07/30 01:25:36;;;;;;;0.40;0.30;;;;;;;22.50;67.97;95162.56;5115050;28;20443;-70
2023/07/30 01:28:07;;;;;;;0.60;0.40;;;;;;;22.41;68.04;95165.44;5115021;28;20439;-71
2023/07/30 01:30:40;;;;;;;0.50;0.30;;;;;;;22.47;67.52;95153.22;5114547;28;20539;-70
2023/07/30 01:33:12;;;;;;;0.50;0.40;;;;;;;22.55;67.25;95156.88;5114540;28;20823;-71
2023/07/30 01:35:42;;;;;;;0.80;0.60;;;;;;;22.47;67.31;95166.72;5115042;28;20436;-70
2023/07/30 01:38:13;;;;;;;0.50;0.30;;;;;;;22.28;67.75;95163.94;5114822;28;20504;-71
2023/07/30 01:40:41;;;;;;;0.50;0.40;;;;;;;22.41;68.27;95173.53;5113892;28;20439;-70
2023/07/30 01:43:10;;;;;;;0.50;0.30;;;;;;;22.43;67.34;95155.06;5114464;28;20448;-69
2023/07/30 01:45:40;;;;;;;0.40;0.30;;;;;;;22.47;67.71;95164.03;5114488;28;20500;-70
2023/07/30 01:48:09;;;;;;;0.50;0.30;;;;;;;22.58;66.87;95170.50;5114158;28;20545;-70
2023/07/30 01:50:37;;;;;;;0.50;0.40;;;;;;;22.38;68.44;95168.84;5114339;28;20504;-70
2023/07/30 01:53:06;;;;;;;0.50;0.40;;;;;;;22.49;67.69;95169.88;5113948;27;20471;-69
2023/07/30 01:55:35;;;;;;;0.40;0.30;;;;;;;22.41;68.35;95170.84;5114792;28;20824;-70
2023/07/30 01:58:04;;;;;;;0.40;0.30;;;;;;;22.49;68.05;95167.16;5114334;28;20431;-69
2023/07/30 02:00:32;;;;;;;0.40;0.30;;;;;;;22.54;67.64;95164.19;5114323;28;20463;-69
2023/07/30 02:03:00;;;;;;;0.50;0.30;;;;;;;22.50;67.73;95168.75;5114288;27;20436;-69
2023/07/30 02:05:29;;;;;;;0.50;0.30;;;;;;;22.58;67.39;95172.41;5114146;28;20535;-68
2023/07/30 02:07:57;;;;;;;0.40;0.30;;;;;;;22.57;67.23;95160.03;5114055;28;20484;-69
2023/07/30 02:10:27;;;;;;;0.60;0.43;;;;;;;22.60;67.50;95170.94;5114206;28;20547;-68
2023/07/30 02:12:57;;;;;;;0.43;0.30;;;;;;;22.71;67.34;95174.72;5113578;28;20440;-68
2023/07/30 02:15:25;;;;;;;0.63;0.60;;;;;;;22.81;66.86;95168.00;5113105;28;20606;-68
2023/07/30 02:17:53;;;;;;;0.50;0.30;;;;;;;22.34;68.02;95170.63;5113696;28;20455;-68
2023/07/30 02:20:22;;;;;;;0.80;0.80;;;;;;;22.19;69.82;95179.50;5113420;28;20479;-68
2023/07/30 02:22:50;;;;;;;0.40;0.20;;;;;;;22.10;70.21;95178.88;5113300;28;20492;-69
2023/07/30 02:25:19;;;;;;;0.40;0.30;;;;;;;21.84;72.80;95182.00;5113765;28;20435;-69
2023/07/30 02:27:48;;;;;;;0.80;0.60;;;;;;;22.18;70.77;95177.16;5113744;27;20432;-68
2023/07/30 02:30:18;;;;;;;0.50;0.30;;;;;;;22.31;70.32;95189.47;5113496;28;20508;-69
2023/07/30 02:32:46;;;;;;;0.60;0.40;;;;;;;21.77;73.97;95195.28;5113022;28;20500;-67
2023/07/30 02:35:14;;;;;;;0.50;0.40;;;;;;;21.39;78.02;95198.44;5113004;28;20474;-66
2023/07/30 02:37:42;;;;;;;0.50;0.40;;;;;;;21.31;80.23;95199.34;5113102;28;20436;-67
2023/07/30 02:40:12;;;;;;;0.60;0.40;;;;;;;21.14;79.21;95142.19;5113590;28;20483;-66
2023/07/30 02:42:40;;;;;;;0.90;0.70;;;;;;;21.03;84.43;95208.41;5113508;28;20878;-66
2023/07/30 02:45:09;;;;;;;2.20;0.67;;;;;;;20.90;86.76;95208.44;5112825;28;20568;-66
2023/07/30 02:47:38;;;;;;;0.50;0.40;;;;;;;21.44;82.24;95200.91;5113132;28;20475;-65
2023/07/30 02:50:07;;;;;;;0.40;0.30;;;;;;;21.73;79.33;95204.41;5112698;28;20500;-66
2023/07/30 02:52:36;;;;;;;0.60;0.40;;;;;;;21.78;78.77;95199.53;5113377;28;20480;-67
2023/07/30 02:55:04;;;;;;;0.50;0.40;;;;;;;21.65;80.17;95198.03;5112569;28;20505;-67
2023/07/30 02:57:33;;;;;;;0.50;0.30;;;;;;;21.63;80.80;95200.25;5112846;28;20439;-65
2023/07/30 03:00:03;;;;;;;0.50;0.30;;;;;;;21.53;79.50;95179.16;5112896;28;20501;-55
2023/07/30 03:02:31;;;;;;;0.50;0.30;;;;;;;21.57;78.54;95196.25;5113114;28;20436;-55
2023/07/30 03:05:01;;;;;;;0.47;0.33;;;;;;;21.38;79.54;95194.16;5112535;28;20436;-55
2023/07/30 03:07:29;;;;;;;0.50;0.33;;;;;;;21.33;79.38;95205.16;5112533;28;20436;-56
2023/07/30 03:09:58;;;;;;;0.40;0.30;;;;;;;21.20;79.75;95198.22;5113257;28;20433;-56
2023/07/30 03:12:26;;;;;;;0.50;0.40;;;;;;;21.16;79.75;95199.25;5112086;28;20844;-56
2023/07/30 03:14:54;;;;;;;0.40;0.30;;;;;;;21.03;81.43;95205.72;5113048;28;20467;-56
2023/07/30 03:17:23;;;;;;;0.50;0.30;;;;;;;21.06;81.68;95200.50;5112243;28;20464;-56
2023/07/30 03:19:51;;;;;;;0.40;0.30;;;;;;;20.98;81.82;95205.94;5112612;28;20435;-56
2023/07/30 03:22:21;;;;;;;0.40;0.30;;;;;;;20.86;82.03;95204.84;5112392;28;20444;-57
2023/07/30 03:24:50;;;;;;;0.40;0.30;;;;;;;20.74;81.95;95198.66;5112488;28;20455;-56
2023/07/30 03:27:18;;;;;;;0.50;0.30;;;;;;;20.83;81.83;95210.09;5112310;28;20473;-56
2023/07/30 03:29:46;;;;;;;0.40;0.20;;;;;;;20.78;81.51;95207.63;5112183;28;21017;-57
2023/07/30 03:32:15;;;;;;;0.40;0.30;;;;;;;20.88;80.43;95212.59;5112118;28;20833;-57
2023/07/30 03:34:43;;;;;;;0.40;0.30;;;;;;;20.97;79.10;95205.19;5112181;28;20801;-57
2023/07/30 03:37:11;;;;;;;0.60;0.40;;;;;;;20.91;80.06;95211.91;5098880;28;20486;-58
2023/07/30 03:39:41;;;;;;;0.50;0.30;;;;;;;20.76;81.08;95208.00;5112129;28;20473;-58
2023/07/30 03:42:09;;;;;;;0.40;0.20;;;;;;;20.92;79.73;95213.50;5112224;28;20436;-58
2023/07/30 03:44:38;;;;;;;0.40;0.20;;;;;;;20.65;81.81;95219.50;5112180;28;20436;-58
2023/07/30 03:47:06;;;;;;;0.60;0.40;;;;;;;20.47;83.27;95226.22;5111544;28;21074;-58
2023/07/30 03:49:34;;;;;;;0.77;0.40;;;;;;;20.59;83.05;95226.25;5112424;28;20505;-58
2023/07/30 03:52:03;;;;;;;0.40;0.30;;;;;;;20.75;81.04;95219.06;5111374;28;20492;-58
2023/07/30 03:54:31;;;;;;;0.50;0.30;;;;;;;20.97;78.73;95213.28;5112212;28;20520;-58
2023/07/30 03:57:01;;;;;;;0.40;0.30;;;;;;;20.95;79.84;95218.19;5111955;28;20981;-58
2023/07/30 03:59:29;;;;;;;0.50;0.40;;;;;;;20.66;82.08;95226.50;5112069;28;20443;-58
2023/07/30 04:01:58;;;;;;;0.80;0.40;;;;;;;20.43;86.27;95218.03;5111554;28;20440;-58
2023/07/30 04:04:26;;;;;;;0.60;0.53;;;;;;;20.13;91.80;95224.66;5111803;28;20447;-58
2023/07/30 04:06:54;;;;;;;0.60;0.30;;;;;;;20.24;92.71;95237.38;5111722;28;20969;-58
2023/07/30 04:09:23;;;;;;;0.60;0.60;;;;;;;19.65;100.00;95235.97;5111486;28;20596;-57
2023/07/30 04:11:52;;;;;;;0.70;0.70;;;;;;;19.50;100.00;95234.66;5111703;28;20546;-57
2023/07/30 04:14:22;;;;;;;0.50;0.30;;;;;;;20.10;98.45;95236.84;5111807;28;20428;-58
2023/07/30 04:16:50;;;;;;;0.73;0.73;;;;;;;19.91;100.00;95233.84;5111814;28;20446;-58
2023/07/30 04:19:19;;;;;;;1.13;0.60;;;;;;;19.87;99.66;95234.84;5111532;28;20471;-58
2023/07/30 04:21:47;;;;;;;0.50;0.40;;;;;;;19.97;100.00;95234.44;5111988;28;20447;-58
2023/07/30 04:24:15;;;;;;;0.40;0.30;;;;;;;20.57;100.00;95236.56;5111672;28;20954;-60
2023/07/30 04:26:44;;;;;;;0.40;0.30;;;;;;;21.03;97.01;95236.16;5112284;28;20432;-60
2023/07/30 04:29:13;;;;;;;0.60;0.30;;;;;;;21.36;92.73;95236.06;5111595;28;20555;-60
2023/07/30 04:31:43;;;;;;;0.57;0.30;;;;;;;21.48;89.32;95244.91;5111610;28;20471;-60
2023/07/30 04:34:12;;;;;;;0.60;0.30;;;;;;;21.67;86.52;95240.84;5111503;28;20440;-60
2023/07/30 04:36:40;;;;;;;0.60;0.50;;;;;;;21.91;84.93;95238.88;5112073;28;20555;-60
2023/07/30 04:39:08;;;;;;;0.60;0.50;;;;;;;22.03;82.44;95240.78;5111604;28;20485;-59
2023/07/30 04:41:37;;;;;;;0.50;0.30;;;;;;;21.93;82.35;95244.75;5110861;28;20446;-60
2023/07/30 04:44:05;;;;;;;0.80;0.50;;;;;;;22.15;81.36;95246.13;5111432;28;20443;-60
2023/07/30 04:46:34;;;;;;;0.50;0.30;;;;;;;22.23;80.04;95229.00;5110966;28;20809;-60
2023/07/30 04:49:05;;;;;;;0.40;0.30;;;;;;;22.25;79.45;95248.31;5111488;28;21082;-60
2023/07/30 04:51:33;;;;;;;1.17;0.80;;;;;;;22.24;77.38;95230.53;5111244;28;21029;-61
2023/07/30 04:54:01;;;;;;;0.50;0.40;;;;;;;22.30;76.71;95242.69;5111659;28;20444;-60
2023/07/30 04:56:30;;;;;;;0.40;0.30;;;;;;;22.33;74.89;95244.69;5111287;28;20442;-60
2023/07/30 04:58:58;;;;;;;0.67;0.50;;;;;;;22.18;75.26;95248.13;5111578;28;20439;-60
2023/07/30 05:01:26;;;;;;;1.40;0.53;;;;;;;21.97;76.31;95251.03;5111335;28;20439;-61
2023/07/30 05:03:55;;;;;;;0.60;0.40;;;;;;;22.08;77.09;95244.03;5111670;28;20440;-60
2023/07/30 05:06:24;;;;;;;0.83;0.80;;;;;;;21.77;77.52;95243.06;5110822;28;20439;-60
2023/07/30 05:08:54;;;;;;;0.80;0.60;;;;;;;22.04;77.62;95248.53;5111313;28;20494;-60
2023/07/30 05:11:23;;;;;;;1.17;1.00;;;;;;;22.12;77.70;95255.69;5110803;28;20435;-60
2023/07/30 05:13:51;;;;;;;0.60;0.50;;;;;;;22.01;74.18;95251.13;5111001;28;20536;-60
2023/07/30 05:16:19;;;;;;;0.60;0.43;;;;;;;22.46;82.14;95250.81;5114391;28;20496;-60
2023/07/30 05:18:48;;;;;;;0.50;0.40;;;;;;;22.51;78.41;95256.75;5114980;28;20538;-60
2023/07/30 05:21:16;;;;;;;2.13;0.57;;;;;;;22.80;76.76;95250.19;5114758;28;20478;-52
2023/07/30 05:23:46;;;;;;;0.50;0.43;;;;;;;22.85;75.00;95251.84;5114624;28;20471;-52
2023/07/30 05:26:14;;;;;;;0.70;0.40;;;;;;;23.04;73.38;95252.72;5114710;28;20953;-52
2023/07/30 05:28:42;;;;;;;0.50;0.40;;;;;;;23.04;69.99;95247.31;5114661;28;20949;-53
2023/07/30 05:31:11;;;;;;;0.90;0.53;;;;;;;22.76;69.51;95252.03;5114358;28;20456;-52
2023/07/30 05:33:39;;;;;;;1.30;0.60;;;;;;;22.25;70.66;95248.31;5114339;28;20475;-51
2023/07/30 05:36:08;;;;;;;0.53;0.53;;;;;;;22.18;71.47;95250.84;5114982;28;20439;-51
2023/07/30 05:38:36;;;;;;;5.57;0.63;;;;;;;22.27;71.00;95251.47;5113966;28;21010;-51
2023/07/30 05:41:05;;;;;;;1.20;1.10;;;;;;;22.08;71.14;95252.13;5114312;28;20443;-50
2023/07/30 05:43:34;;;;;;;1.03;0.53;;;;;;;22.14;70.75;95247.25;5114231;28;20933;-50
2023/07/30 05:46:02;;;;;;;0.50;0.30;;;;;;;22.79;70.13;95254.03;5114504;28;20444;-50
2023/07/30 05:48:30;;;;;;;0.50;0.30;;;;;;;23.19;67.41;95254.66;5113916;28;20471;-50
2023/07/30 05:50:59;;;;;;;4.00;0.80;;;;;;;23.35;69.38;95251.94;5113960;28;20443;-50
2023/07/30 05:53:27;;;;;;;1.23;0.70;;;;;;;23.53;66.01;95241.53;5114059;28;20479;-50
2023/07/30 05:55:55;;;;;;;0.50;0.40;;;;;;;23.50;67.46;95248.44;5114454;28;20447;-50
2023/07/30 05:58:25;;;;;;;0.50;0.30;;;;;;;23.91;66.53;95249.69;5113606;28;20510;-50
2023/07/30 06:00:54;;;;;;;0.90;0.40;;;;;;;24.00;62.86;95248.38;5113991;28;20446;-49
2023/07/30 06:03:22;;;;;;;0.70;0.50;;;;;;;24.32;63.79;95234.69;5114546;28;20988;-49
2023/07/30 06:05:50;;;;;;;0.57;0.43;;;;;;;24.08;63.08;95226.88;5114369;28;20989;-49
2023/07/30 06:08:19;;;;;;;0.40;0.40;;;;;;;24.60;60.48;95227.88;5113406;28;20578;-51
2023/07/30 06:10:47;;;;;;;0.60;0.50;;;;;;;24.83;59.60;95236.06;5113900;28;20474;-50
2023/07/30 06:13:15;;;;;;;1.10;0.73;;;;;;;24.52;59.16;95233.50;5113845;28;20480;-50
2023/07/30 06:15:45;;;;;;;0.50;0.40;;;;;;;24.88;59.31;95235.75;5113607;28;20493;-50
2023/07/30 06:18:14;;;;;;;0.40;0.30;;;;;;;25.47;58.87;95218.09;5105278;27;20795;-49
2023/07/30 06:20:42;;;;;;;0.73;0.73;;;;;;;25.14;56.96;95189.69;5112715;28;20465;-50
2023/07/30 06:23:11;;;;;;;0.87;0.87;;;;;;;25.25;57.37;95227.81;5113727;28;20443;-57
2023/07/30 06:25:39;;;;;;;0.40;0.40;;;;;;;25.73;56.91;95224.28;5112850;28;20467;-57
2023/07/30 06:28:07;;;;;;;0.57;0.40;;;;;;;26.20;55.38;95212.88;5113622;28;20443;-58
2023/07/30 06:30:39;;;;;;;0.50;0.30;;;;;;;26.38;55.79;95223.94;5097477;28;21036;-57
2023/07/30 06:33:08;;;;;;;0.40;0.40;;;;;;;26.36;56.22;95221.59;5111886;28;20531;-59
2023/07/30 06:35:37;;;;;;;0.97;0.30;;;;;;;26.66;54.84;95220.75;5111488;28;20821;-58
2023/07/30 06:38:07;;;;;;;0.50;0.40;;;;;;;27.03;53.42;95226.94;5111613;28;20440;-60
2023/07/30 06:40:35;;;;;;;3.07;0.60;;;;;;;27.25;52.05;95214.28;5110895;28;20999;-59
2023/07/30 06:43:04;;;;;;;0.53;0.40;;;;;;;27.44;52.28;95205.91;5111766;28;21211;-60
2023/07/30 06:45:32;;;;;;;0.60;0.53;;;;;;;27.83;51.51;95204.16;5110513;28;20440;-60
2023/07/30 06:48:00;;;;;;;6.37;0.90;;;;;;;28.24;50.80;95199.31;5111048;28;20494;-60
2023/07/30 06:50:30;;;;;;;0.50;0.40;;;;;;;28.82;49.76;95194.41;5110448;28;20518;-60
2023/07/30 06:52:58;;;;;;;0.50;0.47;;;;;;;28.78;48.48;95190.13;5110821;28;20535;-59
2023/07/30 06:55:27;;;;;;;3.40;0.70;;;;;;;28.56;49.18;95185.78;5110940;28;20526;-60
2023/07/30 06:57:55;;;;;;;0.70;0.63;;;;;;;28.82;48.64;95188.16;5110848;28;20439;-59
2023/07/30 07:00:24;;;;;;;0.40;0.30;;;;;;;28.83;47.94;95176.88;5111415;28;20447;-60
2023/07/30 07:02:52;;;;;;;0.60;0.40;;;;;;;29.34;47.26;95179.22;5111134;28;20443;-60
2023/07/30 07:05:21;;;;;;;0.70;0.30;;;;;;;29.48;48.11;95173.72;5111335;28;20439;-59
2023/07/30 07:07:50;;;;;;;1.00;0.77;;;;;;;29.28;47.46;95178.06;5112812;28;20439;-60
2023/07/30 07:10:19;;;;;;;1.07;0.57;;;;;;;28.77;47.10;95177.63;5112791;28;20510;-60
2023/07/30 07:12:47;;;;;;;0.50;0.50;;;;;;;28.78;47.01;95160.09;5112649;28;20452;-59
2023/07/30 07:15:16;;;;;;;1.53;0.43;;;;;;;29.17;47.54;95168.28;5112881;28;20431;-59
2023/07/30 07:17:44;;;;;;;0.40;0.40;;;;;;;29.68;49.07;95156.91;5112371;28;20432;-59
2023/07/30 07:20:12;;;;;;;0.60;0.50;;;;;;;29.79;47.75;95158.47;5112337;28;20767;-58
2023/07/30 07:22:41;;;;;;;0.90;0.80;;;;;;;29.75;46.07;95157.69;5112120;28;20432;-61
2023/07/30 07:25:11;;;;;;;0.70;0.40;;;;;;;30.10;47.05;95163.03;5112193;27;20485;-59
2023/07/30 07:27:39;;;;;;;0.60;0.53;;;;;;;29.89;48.78;95146.72;5112498;28;20439;-60
2023/07/30 07:30:09;;;;;;;0.60;0.60;;;;;;;30.27;45.93;95144.19;5112445;28;20435;-60
2023/07/30 07:32:38;;;;;;;0.53;0.47;;;;;;;30.25;45.23;95154.75;5112653;28;20558;-60
2023/07/30 07:35:08;;;;;;;0.60;0.50;;;;;;;29.94;46.92;95149.03;5112278;28;21014;-60
2023/07/30 07:37:36;;;;;;;0.77;0.50;;;;;;;30.02;46.31;95144.31;5111529;28;20797;-60
2023/07/30 07:40:06;;;;;;;0.50;0.50;;;;;;;30.44;45.43;95140.59;5111670;28;20427;-60
2023/07/30 07:42:35;;;;;;;0.70;0.70;;;;;;;30.56;46.43;95145.59;5112264;28;20512;-60
2023/07/30 07:45:04;;;;;;;0.43;0.40;;;;;;;30.97;45.33;95138.28;5112611;28;20427;-60
2023/07/30 07:47:33;;;;;;;0.50;0.43;;;;;;;31.37;43.50;95114.84;5112108;28;20462;-60
2023/07/30 07:50:01;;;;;;;1.57;1.00;;;;;;;31.77;41.61;95133.22;5111915;28;20441;-59
2023/07/30 07:52:30;;;;;;;0.40;0.30;;;;;;;32.35;42.82;95137.59;5111711;27;20443;-59
2023/07/30 07:54:58;;;;;;;0.43;0.37;;;;;;;31.88;40.26;95130.31;5112133;28;20565;-58
2023/07/30 07:57:26;;;;;;;0.60;0.50;;;;;;;31.98;40.12;95127.47;5111969;28;20443;-58
2023/07/30 07:59:57;;;;;;;0.70;0.70;;;;;;;32.13;40.43;95130.81;5111861;28;20495;-59
2023/07/30 08:02:26;;;;;;;0.40;0.40;;;;;;;31.75;42.27;95127.34;5112041;28;20439;-57
2023/07/30 08:04:54;;;;;;;0.70;0.33;;;;;;;32.54;41.05;95123.22;5111693;28;20438;-57
2023/07/30 08:07:23;;;;;;;0.40;0.40;;;;;;;32.71;40.74;95117.88;5112248;28;20436;-58
2023/07/30 08:09:52;;;;;;;0.60;0.60;;;;;;;32.67;40.58;95114.41;5111950;28;20435;-57
2023/07/30 08:12:20;;;;;;;0.40;0.30;;;;;;;33.36;38.08;95116.41;5111437;28;20439;-58
2023/07/30 08:14:49;;;;;;;0.70;0.60;;;;;;;33.28;38.33;95115.75;5111854;28;20481;-58
2023/07/30 08:17:20;;;;;;;0.40;0.40;;;;;;;32.36;37.99;95108.19;5111165;28;20993;-59
2023/07/30 08:19:49;;;;;;;0.40;0.40;;;;;;;32.31;40.15;95109.41;5111963;28;20807;-57
2023/07/30 08:22:17;;;;;;;1.33;0.50;;;;;;;32.79;38.28;95103.59;5111610;28;20470;-57
2023/07/30 08:24:45;;;;;;;0.60;0.40;;;;;;;33.46;37.73;95096.19;5111759;28;20435;-57
2023/07/30 08:27:14;;;;;;;0.43;0.40;;;;;;;33.76;37.06;95094.06;5112049;28;20474;-57
2023/07/30 08:29:42;;;;;;;0.40;0.30;;;;;;;34.27;39.45;95091.81;5112041;28;20517;-57
2023/07/30 08:32:10;;;;;;;0.43;0.40;;;;;;;34.02;38.16;95091.56;5111236;28;20450;-57
2023/07/30 08:34:40;;;;;;;2.30;0.70;;;;;;;34.16;35.68;95088.53;5111745;28;20571;-58
2023/07/30 08:37:08;;;;;;;0.40;0.40;;;;;;;34.33;35.51;95085.38;5111383;28;20435;-58
2023/07/30 08:39:37;;;;;;;0.77;0.60;;;;;;;34.00;35.46;95075.50;5111421;28;20466;-58
2023/07/30 08:42:05;;;;;;;0.90;0.63;;;;;;;33.35;35.17;95077.16;5111537;28;20465;-58
2023/07/30 08:44:34;;;;;;;0.50;0.30;;;;;;;33.16;36.00;95069.66;5111840;28;20435;-58
2023/07/30 08:47:02;;;;;;;0.47;0.40;;;;;;;34.04;35.39;95058.91;5111346;28;20431;-58
2023/07/30 08:49:33;;;;;;;0.40;0.40;;;;;;;33.76;36.38;95036.31;5113943;28;20439;-58
2023/07/30 08:52:04;;;;;;;0.50;0.40;;;;;;;34.50;38.34;95055.91;5115558;28;20435;-58
2023/07/30 08:54:32;;;;;;;0.77;0.77;;;;;;;34.54;35.56;95056.59;5114917;28;20553;-58
2023/07/30 08:57:03;;;;;;;0.50;0.40;;;;;;;34.69;37.28;95043.28;5115501;28;20495;-58
2023/07/30 08:59:34;;;;;;;0.50;0.40;;;;;;;34.91;36.75;95044.31;5114169;28;20437;-57
2023/07/30 09:02:04;;;;;;;0.53;0.53;;;;;;;35.07;39.16;95045.09;5104301;28;20438;-57
2023/07/30 09:04:38;;;;;;;1.13;0.40;;;;;;;34.99;37.22;95040.19;5115059;28;20521;-58
2023/07/30 09:07:12;;;;;;;0.40;0.30;;;;;;;34.90;38.92;95035.28;5114937;28;20192;-57
2023/07/30 09:09:43;;;;;;;0.40;0.37;;;;;;;35.57;36.40;95027.22;5114893;28;20644;-57
2023/07/30 09:12:14;;;;;;;0.50;0.40;;;;;;;35.46;35.79;94979.84;5115322;28;20491;-57
2023/07/30 09:14:44;;;;;;;0.50;0.40;;;;;;;35.68;37.01;95024.94;5114789;28;20221;-57
2023/07/30 09:17:18;;;;;;;0.80;0.60;;;;;;;35.39;36.92;94999.38;5114663;28;20205;-58
2023/07/30 09:19:47;;;;;;;0.60;0.53;;;;;;;34.98;40.82;95016.59;5115049;28;20795;-57
2023/07/30 09:22:21;;;;;;;0.50;0.50;;;;;;;35.36;39.09;94995.50;5114523;28;20197;-57
2023/07/30 09:24:49;;;;;;;0.40;0.30;;;;;;;36.48;36.86;95003.63;5114645;28;20284;-56
2023/07/30 09:27:22;;;;;;;0.47;0.40;;;;;;;36.82;37.14;94995.38;5114348;28;20197;-56
2023/07/30 09:29:52;;;;;;;0.97;0.97;;;;;;;36.46;35.02;95000.50;5114972;28;20250;-56
2023/07/30 09:32:21;;;;;;;0.30;0.30;;;;;;;37.46;34.38;94997.50;5114617;27;20189;-56
2023/07/30 09:34:50;;;;;;;0.40;0.40;;;;;;;37.00;34.14;94992.03;5114898;28;20244;-56
2023/07/30 09:37:19;;;;;;;0.40;0.35;;;;;;;37.13;33.32;94916.16;5114541;28;20189;-55
2023/07/30 09:39:49;;;;;;;0.40;0.40;;;;;;;37.56;33.80;94984.50;5114293;28;20670;-57
2023/07/30 09:42:17;;;;;;;0.40;0.30;;;;;;;37.82;34.84;94979.56;5114389;28;20280;-56
2023/07/30 09:44:48;;;;;;;0.40;0.30;;;;;;;37.93;33.08;94979.94;5114559;28;20250;-56
2023/07/30 09:47:16;;;;;;;0.40;0.40;;;;;;;38.12;31.83;94971.28;5113948;28;20278;-57
2023/07/30 09:49:45;;;;;;;0.30;0.30;;;;;;;38.54;32.24;94974.34;5113826;28;20192;-57
2023/07/30 09:52:15;;;;;;;2.05;0.40;;;;;;;38.55;33.04;94966.81;5113913;28;20242;-56
2023/07/30 09:54:45;;;;;;;0.30;0.30;;;;;;;38.06;32.61;94967.56;5114153;28;20208;-56
2023/07/30 09:57:13;;;;;;;0.50;0.40;;;;;;;36.81;30.28;94919.25;5114544;28;20563;-56
2023/07/30 09:59:40;;;;;;;0.50;0.40;;;;;;;37.95;30.97;94963.69;5113301;28;20242;-56
2023/07/30 10:02:11;;;;;;;0.50;0.50;;;;;;;38.20;29.52;94955.19;5113463;28;20190;-56
2023/07/30 10:04:44;;;;;;;0.40;0.40;;;;;;;36.90;33.20;94958.78;5113844;28;20200;-56
2023/07/30 10:07:17;;;;;;;0.63;0.40;;;;;;;37.77;31.53;94955.28;5114418;28;20197;-56
2023/07/30 10:09:50;;;;;;;0.50;0.30;;;;;;;37.40;32.37;94952.28;5113487;28;20250;-56
2023/07/30 10:12:23;;;;;;;0.45;0.45;;;;;;;36.44;30.41;94937.44;5114033;28;20197;-56
2023/07/30 10:14:51;;;;;;;2.05;0.60;;;;;;;36.46;30.28;94940.53;5113022;28;20208;-56
2023/07/30 10:17:20;;;;;;;0.50;0.50;;;;;;;36.82;30.92;94940.13;5112903;28;20229;-56
2023/07/30 10:19:49;;;;;;;1.40;1.15;;;;;;;36.30;32.23;94940.69;5113881;28;20197;-55
2023/07/30 10:22:24;;;;;;;0.60;0.60;;;;;;;37.44;32.36;94930.03;5113590;28;20254;-57
2023/07/30 10:25:01;;;;;;;0.98;0.98;;;;;;;36.80;32.66;94923.22;5113771;28;20320;-56
2023/07/30 10:27:39;;;;;;;0.50;0.50;;;;;;;37.18;32.21;94887.94;5113606;28;20249;-56
2023/07/30 10:30:11;;;;;;;0.40;0.40;;;;;;;38.25;31.54;94918.59;5113631;28;20225;-55
2023/07/30 10:32:41;;;;;;;0.40;0.32;;;;;;;38.93;30.38;94911.00;5113418;28;20195;-55
2023/07/30 10:35:09;;;;;;;0.30;0.30;;;;;;;39.42;30.75;94911.56;5113195;28;20553;-55
2023/07/30 10:37:46;;;;;;;0.60;0.50;;;;;;;38.96;29.70;94908.09;5113891;28;20589;-55
2023/07/30 10:40:19;;;;;;;0.40;0.40;;;;;;;38.51;31.96;94906.03;5113055;28;20211;-55
2023/07/30 10:42:49;;;;;;;0.50;0.45;;;;;;;38.23;31.12;94907.19;5113473;28;20193;-56
2023/07/30 10:45:17;;;;;;;5.10;0.40;;;;;;;38.59;31.17;94900.97;5112414;28;20193;-55
2023/07/30 10:47:46;;;;;;;0.40;0.40;;;;;;;37.49;31.43;94901.81;5112431;28;20229;-56
2023/07/30 10:50:16;;;;;;;0.50;0.50;;;;;;;37.06;32.26;94904.59;5112158;28;20254;-56
2023/07/30 10:52:45;;;;;;;0.38;0.30;;;;;;;37.23;31.95;94903.16;5113122;28;20573;-56
2023/07/30 10:55:13;;;;;;;0.60;0.60;;;;;;;36.32;31.73;94899.59;5112908;28;20209;-55
2023/07/30 10:57:43;;;;;;;0.47;0.47;;;;;;;37.12;30.87;94900.78;5113464;28;20193;-56
2023/07/30 11:00:13;;;;;;;0.40;0.35;;;;;;;36.80;31.32;94904.66;5079749;28;20185;-56
2023/07/30 11:02:41;;;;;;;0.50;0.40;;;;;;;35.81;33.34;94895.31;5107779;28;20192;-56
2023/07/30 11:05:13;;;;;;;0.30;0.30;;;;;;;35.81;32.48;94898.09;5113326;28;20195;-56
2023/07/30 11:07:50;;;;;;;0.50;0.50;;;;;;;35.91;32.85;94895.00;5112682;28;20192;-56
2023/07/30 11:10:19;;;;;;;1.77;0.60;;;;;;;35.79;31.69;94895.78;5112692;28;20665;-56
2023/07/30 11:12:50;;;;;;;0.40;0.30;;;;;;;36.00;31.34;94856.50;5112558;27;20588;-56
2023/07/30 11:15:18;;;;;;;0.73;0.73;;;;;;;35.93;32.07;94887.03;5112394;28;20208;-56
2023/07/30 11:17:47;;;;;;;0.50;0.50;;;;;;;36.19;31.74;94880.31;5112273;28;20249;-56
2023/07/30 11:20:26;;;;;;;0.50;0.40;;;;;;;36.19;32.18;94883.06;5112477;28;20197;-57
2023/07/30 11:22:55;;;;;;;0.30;0.30;;;;;;;35.63;31.51;94833.25;5086887;28;20204;-57
2023/07/30 11:25:23;;;;;;;0.40;0.37;;;;;;;35.74;33.96;94882.53;5112392;28;20655;-56
2023/07/30 11:27:53;;;;;;;0.73;0.50;;;;;;;35.57;34.47;94872.84;5112325;28;20197;-57
2023/07/30 11:30:21;;;;;;;0.40;0.40;;;;;;;35.64;35.21;94867.09;5111960;28;20284;-56
2023/07/30 11:32:50;;;;;;;0.60;0.53;;;;;;;35.27;34.15;94871.34;5112328;28;20572;-56
2023/07/30 11:35:18;;;;;;;0.83;0.57;;;;;;;35.47;34.87;94869.16;5111785;28;20211;-57
2023/07/30 11:37:47;;;;;;;0.77;0.30;;;;;;;35.81;32.52;94854.72;5112095;28;20197;-57
2023/07/30 11:40:15;;;;;;;0.30;0.30;;;;;;;35.72;32.44;94860.91;5112366;28;20243;-56
2023/07/30 11:42:43;;;;;;;0.40;0.40;;;;;;;35.41;33.69;94850.84;5112356;28;20667;-57